Flight Track Log - Related Links

Times and Time Zones

All times are in EDT time to prevent confusion due to time zone crossing. See the SWA1182 flight status page for this flight to view local times or setup timezone preferences in your user account.

Time Position Orientation Groundspeed Altitude Reporting Facility
EDT Latitude Longitude Course Direction KTS MPH feet Rate Location/Type
Thu 09:15:01 AM 45.5958 -122.6281 302° West 167 192 700  Level Seattle Center
Thu 09:16:26 AM 45.6397 -122.7275 302° West 243 280 3,100 2,110 Climbing Seattle Center
Thu 09:17:26 AM 45.6661 -122.8278 291° West 286 329 5,800 2,806 Climbing Seattle Center
Thu 09:18:45 AM 45.5944 -122.8264 179° South 281 323 9,600 2,229 Climbing Seattle Center
Thu 09:19:46 AM 45.5531 -122.7242 120° Southeast 299 344 11,000 1,884 Climbing Seattle Center
Thu 09:20:46 AM 45.5072 -122.6050 119° Southeast 333 383 13,400 2,479 Climbing Seattle Center
Thu 09:21:47 AM 45.4589 -122.4836 120° Southeast 348 400 16,000 2,132 Climbing Seattle Center
Thu 09:22:47 AM 45.4097 -122.3611 120° Southeast 354 407 17,700 1,835 Climbing Seattle Center
Thu 09:23:48 AM 45.3586 -122.2325 119° Southeast 369 425 19,700 1,934 Climbing Seattle Center
Thu 09:24:48 AM 45.3053 -122.1031 120° Southeast 376 433 21,600 1,785 Climbing Seattle Center
Thu 09:25:49 AM 45.2522 -121.9700 119° Southeast 383 441 23,300 1,574 Climbing Seattle Center
Thu 09:26:50 AM 45.2131 -121.8136 110° East 398 458 24,800 1,537 Climbing Seattle Center
Thu 09:27:50 AM 45.1742 -121.6631 110° East 407 468 26,400 1,785 Climbing Seattle Center
Thu 09:28:51 AM 45.1358 -121.5150 110° East 404 465 28,400 2,033 Climbing Seattle Center
Thu 09:29:51 AM 45.0994 -121.3742 110° East 388 447 30,500 1,686 Climbing Seattle Center
Thu 09:30:52 AM 45.0639 -121.2406 111° Southeast 368 423 31,800 1,140 Climbing Seattle Center
Thu 09:31:52 AM 45.0278 -121.1036 110° East 372 428 32,800 1,289 Climbing Seattle Center
Thu 09:32:53 AM 44.9847 -120.9419 111° Southeast 369 425 34,400 1,091 Climbing Seattle Center
Thu 09:33:53 AM 44.9500 -120.8117 111° Southeast 359 413 35,000 298 Climbing Seattle Center
Thu 09:34:54 AM 44.9144 -120.6808 111° Southeast 359 413 35,000  Level Seattle Center
Thu 09:35:55 AM 44.8794 -120.5500 111° Southeast 359 413 35,000  Level Seattle Center
Thu 09:36:55 AM 44.8439 -120.4200 111° Southeast 359 413 35,000  Level Seattle Center
Thu 09:37:56 AM 44.8083 -120.2889 111° Southeast 361 415 35,000  Level Seattle Center
Thu 09:38:56 AM 44.7728 -120.1578 111° Southeast 364 419 35,000  Level Seattle Center
Thu 09:39:57 AM 44.7353 -120.0267 112° Southeast 366 421 35,000  Level Seattle Center
Thu 09:40:57 AM 44.6989 -119.8914 111° Southeast 373 429 35,000  Level Seattle Center
Thu 09:41:58 AM 44.6611 -119.7567 111° Southeast 375 432 35,000  Level Seattle Center
Thu 09:42:59 AM 44.6225 -119.6200 112° Southeast 377 434 35,000  Level Seattle Center
Thu 09:43:59 AM 44.5828 -119.4853 112° Southeast 378 435 35,000  Level Seattle Center
Thu 09:45:00 AM 44.5419 -119.3472 112° Southeast 383 441 35,000  Level Seattle Center
Thu 09:46:00 AM 44.4936 -119.1808 112° Southeast 385 443 35,000  Level Seattle Center
Thu 09:47:01 AM 44.4517 -119.0431 113° Southeast 386 444 35,000  Level Seattle Center
Thu 09:48:02 AM 44.4092 -118.9033 113° Southeast 390 449 35,000  Level Seattle Center
Thu 09:49:02 AM 44.3678 -118.7650 113° Southeast 388 447 35,000  Level Seattle Center
Thu 09:50:03 AM 44.3256 -118.6272 113° Southeast 388 447 35,000  Level Seattle Center
Thu 09:51:03 AM 44.2842 -118.4861 112° Southeast 392 451 35,000  Level Seattle Center
Thu 09:52:04 AM 44.2414 -118.3481 113° Southeast 391 450 35,000  Level Seattle Center
Thu 09:53:05 AM 44.1983 -118.2050 113° Southeast 397 457 35,000  Level Seattle Center
Thu 09:54:05 AM 44.1525 -118.0614 114° Southeast 397 457 35,000  Level Seattle Center
Thu 09:55:06 AM 44.1150 -117.9172 110° East 399 459 35,000  Level Seattle Center
Thu 09:56:06 AM 44.0817 -117.7678 107° East 404 465 35,000  Level Seattle Center
Thu 09:57:07 AM 44.0464 -117.6175 108° East 409 471 35,000  Level Seattle Center
Thu 09:58:08 AM 44.0114 -117.4664 108° East 411 473 35,000  Level Seattle Center
Thu 09:59:24 AM 43.9581 -117.2536 109° East 416 479 35,000  Level Salt Lake Center
Thu 10:00:26 AM 43.9222 -117.1019 108° East 416 479 35,000  Level Salt Lake Center
Thu 10:01:27 AM 43.8861 -116.9511 108° East 415 478 35,000  Level Salt Lake Center
Thu 10:02:28 AM 43.8494 -116.7986 108° East 418 481 35,000  Level Salt Lake Center
Thu 10:03:30 AM 43.8125 -116.6489 109° East 415 478 35,000  Level Salt Lake Center
Thu 10:04:31 AM 43.7758 -116.4986 109° East 416 479 35,000  Level Salt Lake Center
Thu 10:05:33 AM 43.7386 -116.3489 109° East 416 479 35,000  Level Salt Lake Center
Thu 10:06:34 AM 43.6931 -116.1664 109° East 423 487 35,000  Level Salt Lake Center
Thu 10:07:36 AM 43.6561 -116.0150 109° East 420 483 35,000  Level Salt Lake Center
Thu 10:08:38 AM 43.6178 -115.8633 109° East 421 484 35,000  Level Salt Lake Center
Thu 10:09:39 AM 43.5786 -115.7114 110° East 423 487 35,000  Level Salt Lake Center
Thu 10:10:41 AM 43.5408 -115.5600 109° East 420 483 35,000  Level Salt Lake Center
Thu 10:11:42 AM 43.5017 -115.4108 110° East 419 482 35,000  Level Salt Lake Center
Thu 10:12:44 AM 43.4550 -115.2300 110° East 420 483 35,000  Level Salt Lake Center
Thu 10:13:45 AM 43.4158 -115.0800 110° East 418 481 35,000  Level Salt Lake Center
Thu 10:14:47 AM 43.3764 -114.9292 110° East 421 484 35,000  Level Salt Lake Center
Thu 10:15:48 AM 43.3367 -114.7794 110° East 420 483 35,000  Level Salt Lake Center
Thu 10:16:50 AM 43.2961 -114.6286 110° East 422 486 35,000  Level Salt Lake Center
Thu 10:17:52 AM 43.2569 -114.4783 110° East 420 483 35,000  Level Salt Lake Center
Thu 10:18:53 AM 43.2164 -114.3278 110° East 423 487 35,000  Level Salt Lake Center
Thu 10:19:55 AM 43.1667 -114.1508 111° Southeast 421 484 35,000  Level Salt Lake Center
Thu 10:20:56 AM 43.1250 -114.0011 111° Southeast 421 484 35,000  Level Salt Lake Center
Thu 10:21:58 AM 43.0869 -113.8583 110° East 421 484 35,000  Level Salt Lake Center
Thu 10:23:00 AM 43.0397 -113.6919 111° Southeast 421 484 35,000  Level Salt Lake Center
Thu 10:24:01 AM 43.0000 -113.5475 111° Southeast 425 489 35,000  Level Salt Lake Center
Thu 10:25:03 AM 42.9522 -113.3786 111° Southeast 428 493 35,000  Level Salt Lake Center
Thu 10:26:05 AM 42.9125 -113.2361 111° Southeast 425 489 35,000  Level Salt Lake Center
Thu 10:27:06 AM 42.8719 -113.0936 111° Southeast 423 487 35,000  Level Salt Lake Center
Thu 10:28:08 AM 42.8239 -112.9250 111° Southeast 430 495 35,000  Level Salt Lake Center
Thu 10:29:10 AM 42.7822 -112.7794 111° Southeast 433 498 35,000  Level Salt Lake Center
Thu 10:30:12 AM 42.7317 -112.6086 112° Southeast 436 502 35,000  Level Salt Lake Center
Thu 10:31:13 AM 42.6908 -112.4628 111° Southeast 434 499 35,000  Level Salt Lake Center
Thu 10:32:15 AM 42.6442 -112.3092 112° Southeast 438 504 35,000  Level Salt Lake Center
Thu 10:33:17 AM 42.5986 -112.1575 112° Southeast 436 502 35,000  Level Salt Lake Center
Thu 10:34:19 AM 42.5536 -112.0042 112° Southeast 437 503 35,000  Level Salt Lake Center
Thu 10:35:20 AM 42.4997 -111.8211 112° Southeast 436 502 35,000  Level Salt Lake Center
Thu 10:36:22 AM 42.4533 -111.6694 112° Southeast 437 503 35,000  Level Salt Lake Center
Thu 10:37:24 AM 42.4078 -111.5172 112° Southeast 437 503 35,000  Level Salt Lake Center
Thu 10:38:26 AM 42.3617 -111.3658 112° Southeast 436 502 35,000  Level Salt Lake Center
Thu 10:39:28 AM 42.3150 -111.2136 112° Southeast 438 504 35,000  Level Salt Lake Center
Thu 10:40:30 AM 42.2692 -111.0619 112° Southeast 435 501 35,000  Level Salt Lake Center
Thu 10:41:31 AM 42.2206 -110.9031 112° Southeast 437 503 35,000  Level Salt Lake Center
Thu 10:42:33 AM 42.1683 -110.7333 112° Southeast 439 505 35,000 -48 Level Salt Lake Center
Thu 10:43:35 AM 42.1217 -110.5889 113° Southeast 441 507 34,900 -581 Descending Salt Lake Center
Thu 10:44:37 AM 42.0678 -110.4203 113° Southeast 439 505 33,800 -919 Descending Salt Lake Center
Thu 10:45:39 AM 42.0219 -110.2767 113° Southeast 438 504 33,000 -387 Descending Salt Lake Center
Thu 10:46:41 AM 41.9694 -110.1069 113° Southeast 441 507 33,000  Level Salt Lake Center
Thu 10:47:43 AM 41.9233 -109.9639 113° Southeast 437 503 33,000  Level Salt Lake Center
Thu 10:48:45 AM 41.8697 -109.7975 113° Southeast 436 502 33,000  Level Salt Lake Center
Thu 10:49:47 AM 41.8228 -109.6550 114° Southeast 437 503 33,000  Level Salt Lake Center
Thu 10:50:49 AM 41.7769 -109.5117 113° Southeast 437 503 33,000  Level Salt Lake Center
Thu 10:51:51 AM 41.7231 -109.3453 113° Southeast 435 501 33,000  Level Salt Lake Center
Thu 10:52:53 AM 41.6764 -109.2017 113° Southeast 436 502 33,000  Level Salt Lake Center
Thu 10:53:55 AM 41.6200 -109.0322 114° Southeast 440 506 33,000  Level Salt Lake Center
Thu 10:54:57 AM 41.5719 -108.8878 114° Southeast 439 505 33,000  Level Salt Lake Center
Thu 10:55:59 AM 41.5242 -108.7439 114° Southeast 439 505 33,000  Level Salt Lake Center
Thu 10:57:01 AM 41.4672 -108.5764 114° Southeast 442 509 33,000  Level Salt Lake Center
Thu 10:58:03 AM 41.4183 -108.4339 115° Southeast 442 509 33,000  Level Salt Lake Center
Thu 10:58:42 AM 41.3939 -108.3597 114° Southeast 444 511 33,000  Level Denver Center
Thu 10:59:44 AM 41.3272 -108.1700 115° Southeast 444 511 33,000  Level Denver Center
Thu 11:00:46 AM 41.2719 -108.0319 118° Southeast 442 509 33,000  Level Denver Center
Thu 11:01:49 AM 41.2083 -107.8708 118° Southeast 442 509 33,000  Level Denver Center
Thu 11:02:51 AM 41.1158 -107.7803 144° Southeast 429 494 33,000  Level Denver Center
Thu 11:03:53 AM 41.0025 -107.6831 147° Southeast 432 497 33,000  Level Denver Center
Thu 11:04:55 AM 40.9372 -107.5575 125° Southeast 440 506 33,000  Level Denver Center
Thu 11:05:57 AM 40.9117 -107.3717 100° East 458 527 33,000  Level Denver Center
Thu 11:06:59 AM 40.8881 -107.2150 101° East 456 525 33,000  Level Denver Center
Thu 11:08:01 AM 40.8603 -107.0319 101° East 456 525 33,000  Level Denver Center
Thu 11:09:03 AM 40.8361 -106.8742 101° East 458 527 33,000  Level Denver Center
Thu 11:10:05 AM 40.8075 -106.6908 102° East 457 526 33,000  Level Denver Center
Thu 11:11:07 AM 40.7831 -106.5333 102° East 459 528 33,000  Level Denver Center
Thu 11:12:09 AM 40.7519 -106.3492 103° East 461 531 33,000 -145 Level Denver Center
Thu 11:13:11 AM 40.7314 -106.2031 100° East 461 531 32,700 -1,452 Descending Denver Center
Thu 11:14:13 AM 40.7025 -106.0269 102° East 459 528 30,000 -2,419 Descending Denver Center
Thu 11:15:15 AM 40.6761 -105.8694 102° East 445 512 27,700 -2,129 Descending Denver Center
Thu 11:16:17 AM 40.6508 -105.7175 102° East 432 497 25,600 -2,226 Descending Denver Center
Thu 11:17:19 AM 40.6222 -105.5433 102° East 409 471 23,100 -2,177 Descending Denver Center
Thu 11:18:21 AM 40.5900 -105.4119 108° East 383 441 21,100 -1,887 Descending Denver Center
Thu 11:19:23 AM 40.5289 -105.3022 126° Southeast 369 425 19,200 -1,536 Descending Denver Center
Thu 11:20:26 AM 40.4778 -105.1836 120° Southeast 374 430 17,900 -1,488 Descending Denver Center
Thu 11:21:28 AM 40.4378 -105.0428 110° East 379 436 16,100 -1,355 Descending Denver Center
Thu 11:22:30 AM 40.4042 -104.9297 111° Southeast 343 395 15,100 -1,306 Descending Denver Center
Thu 11:23:32 AM 40.3692 -104.8217 113° Southeast 306 352 13,400 -1,500 Descending Denver Center
Thu 11:24:34 AM 40.3350 -104.7200 114° Southeast 305 351 12,000 -1,403 Descending Denver Center
Thu 11:25:36 AM 40.2572 -104.6836 160° South 283 326 10,500 -968 Descending Denver Center
Thu 11:26:38 AM 40.1847 -104.6839 180° South 259 298 10,000 -485 Descending Denver Center
Thu 11:27:52 AM 40.1175 -104.6844 180° South 244 281 9,400 -926 Descending Denver Center
Thu 11:28:54 AM 40.0369 -104.6853 180° South 206 237 7,900 -1,161 Descending Denver Center
Thu 11:29:56 AM 39.9856 -104.6861 181° South 188 216 7,000 -823 Descending Denver Center
Thu 11:30:58 AM 39.9403 -104.6864 180° South 167 192 6,200 -816 Descending Denver Center
Thu 11:32:01 AM 39.8914 -104.6867 180° South 164 189 5,300 -857 Descending Denver Center
Thu 11:34:00 AM 39.8617 -104.6732 180° South  Level Estimated
Thu 11:41:00 AM 39.8617 -104.6732 180° South  Level Estimated
Thu 11:42:00 AM 39.8617 -104.6732 180° South  Level Estimated

Login

Don't have an account? Register now (free) for customized features, flight alerts, and more!